Bookmark and Share
Track history (hours):
 

Normand Flipper

Last reported at 2014-Apr-23 18:33 UTC. Time now 2014-Apr-23 19:04 UTC.
Position N 57°30' W 001°47'.

Length 80 m; draft 4.5 m.

Type: Cargo ship. MMSI: 566522000.

NotesDate/timePositionNaut miles runAvg speedWind from/ knotsBaromVisibWave heightAir tempDewpointWater temp
2014-Apr-23 18:33N 57°30' W 001°47'9 8.9
2014-Apr-23 17:34N 57°31' W 001°31'1110.9
2014-Apr-23 16:34N 57°33' W 001°11'6 0.4
2014-Apr-23 01:28N 57°34' W 000°59'31 0.6
2014-Apr-20 23:33N 57°39' W 000°03'1111.1
2014-Apr-20 22:32N 57°37' W 000°23'1111.1
2014-Apr-20 21:33N 57°35' W 000°43'1111.1
2014-Apr-20 20:33N 57°34' W 001°04'1111.0
2014-Apr-20 19:34N 57°31' W 001°24'1110.9
2014-Apr-20 18:33N 57°29' W 001°44'2 1.7
2014-Apr-20 17:33N 57°30' W 001°47'0 0.0
2014-Apr-20 16:33N 57°30' W 001°47'0 0.0
2014-Apr-20 15:33N 57°30' W 001°47'0 0.0
2014-Apr-20 14:33N 57°30' W 001°47'0 0.0
2014-Apr-20 13:33N 57°30' W 001°47'0 0.0
2014-Apr-20 12:33N 57°30' W 001°47'0 0.3
2014-Apr-20 11:33N 57°30' W 001°47'0 0.0
2014-Apr-20 10:32N 57°30' W 001°47'0 0.0
2014-Apr-20 09:32N 57°30' W 001°47'0 0.0
2014-Apr-20 08:32N 57°30' W 001°47'0 0.0
2014-Apr-20 07:32N 57°30' W 001°47'0 0.4
2014-Apr-20 06:29N 57°30' W 001°47'0 0.0
2014-Apr-20 05:32N 57°30' W 001°47'0 0.0
2014-Apr-20 04:32N 57°30' W 001°47'0 0.0
2014-Apr-20 03:32N 57°30' W 001°47'0 0.0
2014-Apr-20 02:32N 57°30' W 001°47'0 0.0
2014-Apr-20 01:32N 57°30' W 001°47'0 0.0
2014-Apr-20 00:32N 57°30' W 001°47'0 0.0
2014-Apr-19 23:29N 57°30' W 001°47'0 0.0
2014-Apr-19 22:32N 57°30' W 001°47'0 0.0
2014-Apr-19 21:32N 57°30' W 001°47'0 0.0
2014-Apr-19 20:32N 57°30' W 001°47'0 0.0
2014-Apr-19 19:32N 57°30' W 001°47'0 0.0
2014-Apr-19 18:32N 57°30' W 001°47'0 0.0
2014-Apr-19 17:32N 57°30' W 001°47'0 0.1
2014-Apr-19 16:33N 57°30' W 001°47'9 9.0
2014-Apr-19 15:33N 57°31' W 001°30'1111.0
2014-Apr-19 14:33N 57°33' W 001°10'66 4.9
2014-Apr-19 01:12N 57°44' E 000°51'  

Dump ship's entire track history

sailing weather and tide predictions

Normand Flipper — 9V6929 — position and weather